createdAt,value
2022-08-02T00:01:55.618Z,41.94
2022-08-02T00:03:57.612Z,42.36
2022-08-02T00:05:59.237Z,42.01
2022-08-02T00:08:02.158Z,42.41
2022-08-02T00:10:05.300Z,42.38
2022-08-02T00:12:08.463Z,42.25
2022-08-02T00:14:10.377Z,42.05
2022-08-02T00:16:12.238Z,42.02
2022-08-02T00:18:18.775Z,42.15
2022-08-02T00:20:20.508Z,42.19
2022-08-02T00:22:22.094Z,42.53
2022-08-02T00:24:30.630Z,42.23
2022-08-02T00:26:32.770Z,42.50
2022-08-02T00:28:34.490Z,43.23
2022-08-02T00:30:36.098Z,43.06
2022-08-02T00:32:37.732Z,43.74
2022-08-02T00:34:39.305Z,43.53
2022-08-02T00:36:40.980Z,43.54
2022-08-02T00:38:42.794Z,43.38
2022-08-02T00:40:48.943Z,44.04
2022-08-02T00:43:01.533Z,43.87
2022-08-02T00:45:03.863Z,44.33
2022-08-02T00:47:05.819Z,44.43
2022-08-02T00:49:07.635Z,44.14
2022-08-02T00:51:09.253Z,43.86
2022-08-02T00:53:10.828Z,43.27
2022-08-02T00:55:12.628Z,43.90
2022-08-02T00:57:20.407Z,43.74
2022-08-02T00:59:22.006Z,43.35
2022-08-02T01:01:23.755Z,43.44
2022-08-02T01:03:25.383Z,43.03
2022-08-02T01:05:27.187Z,42.81
2022-08-02T01:07:28.826Z,43.16
2022-08-02T01:09:30.415Z,42.80
2022-08-02T01:11:33.219Z,43.06
2022-08-02T01:13:36.850Z,43.28
2022-08-02T01:15:43.509Z,43.41
2022-08-02T01:17:50.599Z,43.53
2022-08-02T01:20:02.532Z,43.73
2022-08-02T01:22:58.050Z,42.75
2022-08-02T01:25:25.405Z,43.17
2022-08-02T01:27:39.963Z,43.19
2022-08-02T01:29:49.207Z,42.61
2022-08-02T01:31:57.197Z,42.92
2022-08-02T01:34:04.345Z,43.19
2022-08-02T01:36:11.789Z,42.96
2022-08-02T01:38:17.640Z,43.46
2022-08-02T01:40:23.888Z,43.37
2022-08-02T01:42:27.104Z,43.25
2022-08-02T01:44:33.026Z,43.88
2022-08-02T01:46:40.855Z,43.49
2022-08-02T01:48:45.309Z,43.55
2022-08-02T01:50:49.151Z,44.26
2022-08-02T01:52:53.703Z,43.96
2022-08-02T01:55:01.414Z,43.76
2022-08-02T01:57:06.424Z,44.50
2022-08-02T01:59:11.324Z,44.13
2022-08-02T02:01:18.351Z,44.39
2022-08-02T02:03:25.134Z,44.26
2022-08-02T02:05:29.455Z,44.39
2022-08-02T02:07:34.853Z,45.26
2022-08-02T02:09:50.929Z,45.40
2022-08-02T02:12:12.171Z,45.99
2022-08-02T02:14:17.693Z,45.27
2022-08-02T02:16:19.815Z,45.72
2022-08-02T02:18:25.485Z,46.00
2022-08-02T02:20:27.192Z,45.70
2022-08-02T02:22:29.131Z,46.17
2022-08-02T02:24:31.088Z,46.24
2022-08-02T02:26:35.905Z,46.78
2022-08-02T02:28:40.892Z,46.41
2022-08-02T02:30:48.621Z,46.61
2022-08-02T02:32:53.002Z,46.94
2022-08-02T02:34:57.789Z,46.67
2022-08-02T02:37:02.403Z,47.02
2022-08-02T02:39:11.582Z,47.33
2022-08-02T02:41:17.422Z,47.41
2022-08-02T02:43:21.480Z,46.84
2022-08-02T02:45:24.839Z,46.67
2022-08-02T02:47:40.889Z,46.41
2022-08-02T02:49:45.082Z,46.85
2022-08-02T02:51:49.193Z,46.69
2022-08-02T02:54:31.015Z,46.39
2022-08-02T02:56:15.340Z,46.64
2022-08-02T02:58:17.476Z,47.74
2022-08-02T03:00:19.131Z,47.01
2022-08-02T03:02:21.187Z,46.72
2022-08-02T03:04:24.908Z,46.42
2022-08-02T03:06:26.627Z,46.66
2022-08-02T03:08:30.145Z,46.31
2022-08-02T03:10:32.835Z,46.12
2022-08-02T03:12:35.744Z,46.20
2022-08-02T03:14:42.017Z,46.46
2022-08-02T03:16:44.688Z,46.52
2022-08-02T03:18:46.288Z,46.70
2022-08-02T03:20:47.961Z,46.52
2022-08-02T03:22:50.119Z,47.16
2022-08-02T03:24:53.090Z,47.11
2022-08-02T03:26:57.039Z,47.17
2022-08-02T03:28:58.635Z,47.14
2022-08-02T03:31:00.753Z,47.25
2022-08-02T03:33:02.383Z,47.14
2022-08-02T03:35:06.754Z,47.01
2022-08-02T03:37:08.923Z,47.03
2022-08-02T03:39:12.258Z,47.20
2022-08-02T03:41:18.683Z,46.90
2022-08-02T03:43:21.223Z,47.16
2022-08-02T03:45:23.983Z,47.54
2022-08-02T03:47:27.667Z,47.33
2022-08-02T03:49:29.648Z,47.37
2022-08-02T03:51:31.607Z,47.17
2022-08-02T03:53:33.671Z,47.28
2022-08-02T03:55:35.820Z,47.42
2022-08-02T03:57:39.540Z,47.43
2022-08-02T03:59:41.764Z,48.14
2022-08-02T04:01:43.362Z,47.40
2022-08-02T04:03:44.925Z,47.75
2022-08-02T04:06:03.691Z,48.25
2022-08-02T04:08:36.923Z,47.46
2022-08-02T04:10:27.750Z,47.20
2022-08-02T04:12:29.319Z,47.06
2022-08-02T04:14:36.140Z,46.04
2022-08-02T04:16:43.178Z,46.46
2022-08-02T04:18:49.902Z,46.53
2022-08-02T04:20:53.036Z,46.61
2022-08-02T04:22:58.438Z,46.43
2022-08-02T04:25:04.793Z,46.29
2022-08-02T04:27:49.208Z,45.06
2022-08-02T04:29:33.966Z,44.56
2022-08-02T04:31:36.163Z,44.76
2022-08-02T04:33:38.360Z,44.70
2022-08-02T04:35:40.093Z,44.68
2022-08-02T04:38:08.670Z,44.55
2022-08-02T04:40:08.232Z,45.47
2022-08-02T04:42:10.351Z,45.55
2022-08-02T04:44:12.750Z,45.42
2022-08-02T04:46:15.698Z,45.77
2022-08-02T04:48:17.263Z,46.22
2022-08-02T04:50:18.919Z,46.39
2022-08-02T04:52:20.565Z,46.61
2022-08-02T04:54:22.153Z,46.63
2022-08-02T04:56:23.694Z,46.00
2022-08-02T04:58:39.920Z,46.63
2022-08-02T05:00:42.307Z,46.69
2022-08-02T05:02:45.201Z,47.04
2022-08-02T05:04:46.765Z,46.42
2022-08-02T05:06:48.304Z,46.73
2022-08-02T05:08:52.972Z,46.78
2022-08-02T05:10:55.045Z,47.34
2022-08-02T05:12:56.729Z,47.35
2022-08-02T05:14:58.381Z,47.35
2022-08-02T05:16:59.976Z,47.67
2022-08-02T05:19:03.568Z,47.36
2022-08-02T05:21:05.211Z,47.61
2022-08-02T05:23:06.984Z,47.29
2022-08-02T05:25:09.804Z,47.34
2022-08-02T05:27:17.117Z,47.14
2022-08-02T05:29:23.286Z,46.53
2022-08-02T05:31:25.066Z,46.55
2022-08-02T05:33:27.008Z,46.80
2022-08-02T05:35:30.056Z,46.86
2022-08-02T05:37:32.287Z,46.74
2022-08-02T05:39:34.875Z,46.64
2022-08-02T05:41:38.845Z,46.55
2022-08-02T05:43:40.442Z,46.45
2022-08-02T05:45:42.205Z,47.35
2022-08-02T05:47:44.750Z,46.98
2022-08-02T05:49:46.329Z,47.93
2022-08-02T05:51:57.069Z,47.56
2022-08-02T05:54:06.952Z,47.54
2022-08-02T05:56:16.800Z,48.05
2022-08-02T05:58:27.546Z,48.14
2022-08-02T06:00:31.581Z,47.17
2022-08-02T06:02:45.019Z,47.85
2022-08-02T06:05:04.068Z,47.78
2022-08-02T06:07:11.995Z,47.18
2022-08-02T06:09:15.798Z,46.81
2022-08-02T06:11:21.746Z,47.30
2022-08-02T06:13:25.389Z,46.99
2022-08-02T06:15:27.431Z,47.96
2022-08-02T06:17:30.141Z,46.73
2022-08-02T06:19:48.853Z,48.32
2022-08-02T06:22:34.713Z,47.39
2022-08-02T06:24:21.677Z,47.67
2022-08-02T06:26:24.115Z,47.55
2022-08-02T06:28:26.368Z,46.55
2022-08-02T06:30:28.632Z,47.14
2022-08-02T06:32:32.259Z,47.24
2022-08-02T06:34:36.654Z,47.33
2022-08-02T06:36:47.516Z,47.70
2022-08-02T06:39:01.482Z,46.58
2022-08-02T06:41:06.547Z,46.82
2022-08-02T06:43:12.579Z,46.17
2022-08-02T06:45:16.900Z,44.95
2022-08-02T06:47:18.659Z,44.72
2022-08-02T06:49:20.449Z,44.16
2022-08-02T06:51:22.526Z,43.76
2022-08-02T06:53:24.146Z,43.83
2022-08-02T06:55:25.896Z,43.48
2022-08-02T06:57:29.511Z,43.15
2022-08-02T06:59:33.891Z,42.93
2022-08-02T07:01:38.603Z,43.09
2022-08-02T07:03:41.230Z,42.83
2022-08-02T07:05:43.138Z,44.17
2022-08-02T07:07:45.149Z,42.83
2022-08-02T07:09:56.621Z,42.49
2022-08-02T07:12:02.933Z,42.10
2022-08-02T07:14:05.960Z,42.09
2022-08-02T07:16:07.793Z,43.82
2022-08-02T07:18:09.437Z,44.28
2022-08-02T07:20:15.786Z,45.73
2022-08-02T07:22:17.493Z,44.76
2022-08-02T07:24:19.281Z,44.76
2022-08-02T07:26:20.937Z,44.65
2022-08-02T07:28:24.740Z,44.34
2022-08-02T07:30:28.187Z,44.12
2022-08-02T07:32:31.498Z,44.07
2022-08-02T07:34:33.283Z,41.37
2022-08-02T07:36:34.931Z,41.88
2022-08-02T07:38:37.502Z,44.59
2022-08-02T07:40:39.327Z,44.71
2022-08-02T07:42:41.758Z,43.54
2022-08-02T07:44:46.120Z,44.27
2022-08-02T07:46:52.004Z,44.82
2022-08-02T07:48:53.755Z,46.30
2022-08-02T07:50:55.424Z,44.87
2022-08-02T07:52:57.642Z,45.62
2022-08-02T07:54:59.725Z,48.11
2022-08-02T07:57:01.295Z,44.39
2022-08-02T07:59:03.065Z,45.65
2022-08-02T08:01:04.775Z,46.31
2022-08-02T08:03:07.843Z,45.59
2022-08-02T08:05:10.134Z,44.93
2022-08-02T08:07:11.711Z,46.19
2022-08-02T08:09:13.276Z,45.73
2022-08-02T08:11:14.933Z,45.40
2022-08-02T08:13:16.568Z,44.78
2022-08-02T08:15:18.209Z,45.13
2022-08-02T08:17:20.612Z,45.21
2022-08-02T08:19:49.967Z,44.79
2022-08-02T08:21:45.138Z,45.02
2022-08-02T08:23:46.747Z,44.41
2022-08-02T08:25:48.429Z,44.07
2022-08-02T08:27:50.570Z,44.87
2022-08-02T08:29:52.210Z,36.75
2022-08-02T08:31:53.843Z,36.10
2022-08-02T08:33:55.438Z,39.00
2022-08-02T08:35:58.453Z,38.60
2022-08-02T08:38:04.191Z,36.34
2022-08-02T08:40:10.405Z,44.54
2022-08-02T08:42:12.390Z,34.28
2022-08-02T08:44:14.325Z,41.32
2022-08-02T08:46:24.335Z,43.99
2022-08-02T08:48:31.070Z,43.98
2022-08-02T08:50:38.859Z,44.02
2022-08-02T08:52:47.724Z,43.81
2022-08-02T08:54:50.152Z,43.65
2022-08-02T08:56:54.233Z,43.07
2022-08-02T08:58:56.139Z,42.91
2022-08-02T09:00:58.563Z,42.24
2022-08-02T09:03:02.956Z,42.50
2022-08-02T09:05:05.329Z,42.29
2022-08-02T09:07:07.024Z,42.78
2022-08-02T09:09:11.069Z,40.88
2022-08-02T09:11:14.418Z,41.66
2022-08-02T09:13:31.174Z,32.76
2022-08-02T09:15:42.153Z,41.49
2022-08-02T09:17:50.543Z,40.76
2022-08-02T09:20:07.321Z,30.33
2022-08-02T09:22:11.321Z,35.36
2022-08-02T09:24:19.938Z,38.65
2022-08-02T09:26:22.993Z,38.34
2022-08-02T09:28:28.773Z,38.32
2022-08-02T09:30:30.514Z,38.39
2022-08-02T09:32:43.857Z,38.08
2022-08-02T09:34:47.653Z,37.36
2022-08-02T09:36:54.502Z,37.25
2022-08-02T09:38:58.369Z,36.45
2022-08-02T09:41:01.499Z,32.80
2022-08-02T09:43:03.233Z,36.32
2022-08-02T09:45:05.909Z,37.17
2022-08-02T09:47:14.673Z,37.00
2022-08-02T09:49:17.606Z,36.89
2022-08-02T09:51:20.964Z,37.11
2022-08-02T09:53:23.525Z,37.04
2022-08-02T09:55:26.345Z,36.71
2022-08-02T09:57:29.977Z,36.17
2022-08-02T09:59:31.782Z,35.83
2022-08-02T10:01:37.408Z,35.16
2022-08-02T10:03:54.069Z,34.79
2022-08-02T10:06:02.178Z,36.25
2022-08-02T10:08:04.823Z,34.08
2022-08-02T10:10:07.371Z,31.56
2022-08-02T10:12:09.991Z,33.66
2022-08-02T10:14:15.835Z,34.94
2022-08-02T10:16:18.410Z,33.85
2022-08-02T10:18:37.655Z,36.62
2022-08-02T10:20:44.517Z,32.22
2022-08-02T10:22:47.038Z,32.65
2022-08-02T10:24:50.119Z,34.89
2022-08-02T10:26:53.384Z,33.37
2022-08-02T10:28:55.145Z,33.29
2022-08-02T10:31:00.974Z,34.50
2022-08-02T10:33:04.193Z,30.94
2022-08-02T10:35:19.641Z,35.24
2022-08-02T10:37:29.711Z,31.77
2022-08-02T10:39:38.889Z,31.66
2022-08-02T10:41:45.568Z,31.97
2022-08-02T10:43:50.314Z,31.02
2022-08-02T10:45:52.027Z,30.98
2022-08-02T10:48:03.544Z,31.05
2022-08-02T10:50:08.627Z,30.99
2022-08-02T10:52:11.074Z,30.62
2022-08-02T10:54:17.854Z,30.55
2022-08-02T10:56:45.588Z,29.80
2022-08-02T10:58:47.215Z,30.28
2022-08-02T11:00:49.984Z,31.18
2022-08-02T11:02:53.450Z,32.21
2022-08-02T11:05:06.332Z,30.14
2022-08-02T11:07:12.701Z,30.31
2022-08-02T11:09:31.410Z,29.80
2022-08-02T11:12:00.918Z,29.38
2022-08-02T11:14:14.621Z,31.72
2022-08-02T11:16:16.307Z,33.33
2022-08-02T11:18:18.541Z,32.68
2022-08-02T11:20:21.250Z,30.02
2022-08-02T11:22:25.846Z,33.82
2022-08-02T11:24:29.213Z,29.21
2022-08-02T11:26:46.677Z,30.60
2022-08-02T11:28:49.404Z,32.54
2022-08-02T11:30:58.545Z,29.91
2022-08-02T11:33:01.089Z,32.09
2022-08-02T11:35:02.975Z,29.05
2022-08-02T11:37:04.975Z,33.49
2022-08-02T11:39:10.622Z,32.44
2022-08-02T11:41:46.806Z,33.02
2022-08-02T11:43:40.840Z,28.76
2022-08-02T11:45:42.520Z,28.50
2022-08-02T11:47:52.697Z,30.91
2022-08-02T11:50:04.872Z,30.40
2022-08-02T11:52:07.815Z,31.03
2022-08-02T11:54:09.476Z,32.24
2022-08-02T11:56:12.097Z,33.16
2022-08-02T11:58:13.733Z,33.66
2022-08-02T12:00:17.699Z,30.81
2022-08-02T12:02:20.483Z,32.18
2022-08-02T12:04:23.697Z,30.13
2022-08-02T12:06:28.170Z,31.00
2022-08-02T12:08:29.722Z,28.47
2022-08-02T12:10:32.359Z,31.46
2022-08-02T12:12:34.217Z,32.23
2022-08-02T12:14:43.281Z,31.83
2022-08-02T12:16:45.290Z,31.55
2022-08-02T12:18:49.172Z,27.64
2022-08-02T12:20:52.103Z,31.23
2022-08-02T12:22:53.818Z,31.56
2022-08-02T12:24:56.952Z,30.62
2022-08-02T12:26:58.758Z,31.07
2022-08-02T12:29:00.375Z,30.35
2022-08-02T12:31:02.325Z,29.54
2022-08-02T12:33:12.901Z,29.69
2022-08-02T12:35:26.368Z,27.72
2022-08-02T12:37:30.110Z,28.78
2022-08-02T12:39:37.791Z,27.33
2022-08-02T12:41:39.820Z,27.51
2022-08-02T12:43:57.406Z,26.96
2022-08-02T12:45:59.055Z,23.87
2022-08-02T12:48:01.437Z,25.02
2022-08-02T12:50:13.876Z,24.53
2022-08-02T12:52:19.931Z,24.51
2022-08-02T12:54:30.686Z,24.34
2022-08-02T12:56:37.884Z,28.04
2022-08-02T12:58:48.590Z,23.92
2022-08-02T13:00:53.474Z,24.74
2022-08-02T13:02:57.303Z,23.62
2022-08-02T13:04:59.596Z,22.50
2022-08-02T13:07:01.716Z,23.71
2022-08-02T13:09:12.461Z,22.43
2022-08-02T13:11:16.050Z,23.98
2022-08-02T13:13:17.656Z,24.54
2022-08-02T13:15:46.506Z,24.16
2022-08-02T13:17:42.777Z,23.60
2022-08-02T13:19:44.397Z,21.51
2022-08-02T13:22:02.382Z,24.37
2022-08-02T13:24:06.101Z,24.71
2022-08-02T13:26:31.321Z,23.31
2022-08-02T13:28:33.230Z,23.09
2022-08-02T13:30:34.993Z,21.06
2022-08-02T13:32:36.724Z,23.57
2022-08-02T13:34:38.356Z,23.28
2022-08-02T13:36:39.989Z,22.82
2022-08-02T13:38:41.812Z,19.61
2022-08-02T13:41:03.164Z,20.99
2022-08-02T13:43:06.465Z,20.08
2022-08-02T13:45:12.983Z,20.74
2022-08-02T13:47:15.727Z,23.36
2022-08-02T13:49:50.566Z,21.92
2022-08-02T13:51:53.643Z,21.96
2022-08-02T13:53:55.286Z,20.41
2022-08-02T13:55:56.988Z,19.32
2022-08-02T13:57:58.893Z,19.59
2022-08-02T14:00:02.184Z,20.33
2022-08-02T14:02:07.016Z,19.99
2022-08-02T14:04:09.622Z,20.71
2022-08-02T14:06:11.293Z,18.92
2022-08-02T14:08:16.376Z,19.32
2022-08-02T14:10:18.850Z,21.73
2022-08-02T14:12:20.600Z,22.24
2022-08-02T14:14:22.204Z,20.10
2022-08-02T14:16:33.009Z,21.30
2022-08-02T14:18:34.975Z,22.38
2022-08-02T14:20:36.582Z,19.32
2022-08-02T14:22:38.227Z,18.61
2022-08-02T14:24:40.555Z,19.66
2022-08-02T14:26:42.220Z,19.91
2022-08-02T14:28:44.003Z,20.64
2022-08-02T14:30:45.642Z,21.73
2022-08-02T14:32:48.605Z,21.82
2022-08-02T14:34:50.337Z,19.81
2022-08-02T14:36:54.124Z,20.24
2022-08-02T14:38:56.705Z,22.23
2022-08-02T14:40:58.406Z,23.71
2022-08-02T14:43:00.853Z,20.54
2022-08-02T14:45:02.615Z,20.57
2022-08-02T14:47:04.446Z,22.54
2022-08-02T14:49:09.461Z,21.34
2022-08-02T14:51:14.044Z,19.77
2022-08-02T14:53:15.689Z,19.32
2022-08-02T14:55:17.681Z,23.35
2022-08-02T14:57:19.457Z,19.50
2022-08-02T14:59:21.798Z,19.90
2022-08-02T15:01:25.970Z,20.27
2022-08-02T15:03:29.620Z,20.39
2022-08-02T15:05:32.867Z,25.10
2022-08-02T15:07:38.272Z,25.98
2022-08-02T15:09:43.638Z,25.76
2022-08-02T15:11:47.920Z,25.57
2022-08-02T15:13:50.467Z,26.02
2022-08-02T15:15:55.390Z,26.23
2022-08-02T15:17:57.060Z,23.73
2022-08-02T15:20:02.986Z,25.97
2022-08-02T15:22:10.626Z,23.76
2022-08-02T15:24:18.072Z,24.65
2022-08-02T15:26:19.672Z,22.84
2022-08-02T15:28:21.309Z,22.54
2022-08-02T15:30:22.928Z,21.39
2022-08-02T15:32:24.521Z,20.90
2022-08-02T15:34:26.123Z,21.28
2022-08-02T15:36:27.836Z,21.13
2022-08-02T15:38:30.895Z,20.99
2022-08-02T15:40:32.784Z,21.39
2022-08-02T15:42:34.464Z,20.88
2022-08-02T15:44:36.053Z,21.86
2022-08-02T15:46:39.597Z,23.43
2022-08-02T15:48:41.314Z,21.19
2022-08-02T15:50:42.963Z,22.45
2022-08-02T15:52:44.559Z,24.45
2022-08-02T15:54:47.619Z,25.20
2022-08-02T15:56:49.663Z,20.99
2022-08-02T15:58:51.688Z,20.62
2022-08-02T16:00:55.725Z,20.87
2022-08-02T16:02:57.336Z,22.59
2022-08-02T16:04:58.955Z,20.62
2022-08-02T16:07:01.629Z,21.49
2022-08-02T16:09:04.075Z,21.30
2022-08-02T16:11:07.046Z,24.96
2022-08-02T16:13:08.686Z,26.28
2022-08-02T16:15:10.662Z,24.93
2022-08-02T16:17:12.325Z,25.87
2022-08-02T16:19:46.317Z,27.58
2022-08-02T16:21:35.693Z,28.00
2022-08-02T16:24:01.058Z,26.70
2022-08-02T16:25:59.099Z,27.73
2022-08-02T16:28:07.177Z,26.82
2022-08-02T16:30:11.363Z,26.65
2022-08-02T16:32:13.206Z,28.08
2022-08-02T16:34:15.451Z,22.92
2022-08-02T16:36:19.598Z,28.32
2022-08-02T16:38:21.959Z,27.33
2022-08-02T16:40:23.754Z,28.68
2022-08-02T16:42:25.898Z,28.91
2022-08-02T16:44:30.109Z,28.72
2022-08-02T16:46:31.993Z,28.69
2022-08-02T16:48:33.647Z,28.38
2022-08-02T16:50:36.649Z,26.27
2022-08-02T16:52:38.801Z,25.94
2022-08-02T16:54:41.013Z,28.52
2022-08-02T16:56:42.660Z,28.90
2022-08-02T16:58:44.882Z,27.06
2022-08-02T17:00:48.248Z,28.70
2022-08-02T17:02:50.934Z,28.97
2022-08-02T17:04:53.170Z,26.55
2022-08-02T17:06:54.797Z,28.80
2022-08-02T17:08:59.598Z,29.15
2022-08-02T17:11:03.194Z,29.29
2022-08-02T17:13:11.218Z,28.89
2022-08-02T17:16:01.290Z,29.10
2022-08-02T17:17:40.592Z,29.05
2022-08-02T17:19:44.774Z,23.73
2022-08-02T17:21:49.775Z,23.55
2022-08-02T17:24:07.827Z,23.21
2022-08-02T17:26:10.143Z,22.78
2022-08-02T17:28:14.911Z,25.14
2022-08-02T17:30:17.132Z,26.22
2022-08-02T17:32:29.237Z,25.92
2022-08-02T17:34:32.690Z,26.59
2022-08-02T17:36:35.055Z,28.37
2022-08-02T17:38:36.729Z,28.84
2022-08-02T17:40:52.065Z,28.90
2022-08-02T17:42:53.726Z,28.87
2022-08-02T17:45:00.856Z,28.89
2022-08-02T17:47:08.718Z,28.95
2022-08-02T17:49:13.748Z,27.41
2022-08-02T17:51:33.150Z,28.71
2022-08-02T17:53:38.506Z,28.50
2022-08-02T17:55:42.572Z,28.94
2022-08-02T17:57:57.439Z,29.10
2022-08-02T18:00:04.188Z,28.54
2022-08-02T18:02:06.100Z,27.28
2022-08-02T18:04:09.788Z,25.55
2022-08-02T18:06:11.446Z,24.71
2022-08-02T18:08:14.362Z,26.78
2022-08-02T18:10:17.007Z,26.65
2022-08-02T18:12:19.057Z,28.71
2022-08-02T18:14:24.438Z,28.63
2022-08-02T18:16:28.154Z,28.60
2022-08-02T18:18:30.734Z,25.97
2022-08-02T18:20:32.526Z,28.73
2022-08-02T18:22:34.089Z,28.37
2022-08-02T18:24:37.161Z,28.01
2022-08-02T18:26:39.826Z,28.67
2022-08-02T18:28:45.427Z,27.42
2022-08-02T18:30:48.060Z,27.31
2022-08-02T18:33:59.891Z,24.78
2022-08-02T18:35:11.695Z,27.63
2022-08-02T18:37:14.115Z,26.79
2022-08-02T18:39:19.320Z,28.12
2022-08-02T18:41:22.200Z,25.82
2022-08-02T18:43:29.604Z,24.43
2022-08-02T18:46:01.628Z,25.40
2022-08-02T18:47:53.237Z,27.35
2022-08-02T18:49:56.291Z,25.77
2022-08-02T18:51:58.053Z,27.49
2022-08-02T18:54:00.977Z,27.61
2022-08-02T18:56:04.222Z,26.26
2022-08-02T18:58:18.761Z,25.19
2022-08-02T19:00:25.817Z,25.00
2022-08-02T19:02:28.254Z,26.85
2022-08-02T19:04:32.916Z,25.61
2022-08-02T19:06:34.672Z,26.96
2022-08-02T19:08:36.276Z,26.25
2022-08-02T19:10:38.455Z,26.32
2022-08-02T19:12:51.703Z,26.15
2022-08-02T19:14:55.182Z,26.14
2022-08-02T19:16:59.169Z,26.72
2022-08-02T19:19:00.752Z,27.33
2022-08-02T19:21:07.341Z,26.70
2022-08-02T19:23:10.461Z,28.11
2022-08-02T19:25:16.938Z,26.92
2022-08-02T19:27:25.889Z,27.18
2022-08-02T19:29:42.965Z,28.07
2022-08-02T19:32:00.202Z,29.47
2022-08-02T19:34:07.081Z,27.56
2022-08-02T19:36:09.716Z,27.15
2022-08-02T19:38:13.322Z,27.95
2022-08-02T19:40:15.686Z,28.08
2022-08-02T19:42:18.513Z,27.62
2022-08-02T19:44:28.888Z,27.77
2022-08-02T19:46:31.217Z,27.73
2022-08-02T19:48:34.231Z,27.49
2022-08-02T19:50:35.814Z,27.83
2022-08-02T19:52:37.462Z,27.66
2022-08-02T19:54:54.147Z,28.19
2022-08-02T19:56:58.470Z,28.12
2022-08-02T19:59:00.815Z,28.02
2022-08-02T20:01:16.754Z,28.42
2022-08-02T20:03:19.587Z,28.59
2022-08-02T20:05:42.882Z,27.56
2022-08-02T20:07:56.513Z,28.92
2022-08-02T20:09:58.990Z,28.73
2022-08-02T20:12:02.064Z,29.90
2022-08-02T20:14:04.249Z,28.14
2022-08-02T20:16:06.358Z,29.55
2022-08-02T20:18:09.005Z,29.52
2022-08-02T20:20:12.083Z,29.29
2022-08-02T20:22:16.475Z,28.24
2022-08-02T20:24:18.312Z,30.26
2022-08-02T20:26:19.952Z,28.26
2022-08-02T20:28:23.588Z,28.30
2022-08-02T20:30:25.539Z,31.04
2022-08-02T20:32:27.243Z,28.21
2022-08-02T20:34:30.087Z,28.03
2022-08-02T20:36:31.695Z,28.83
2022-08-02T20:38:34.816Z,28.94
2022-08-02T20:40:36.477Z,30.89
2022-08-02T20:42:38.285Z,30.16
2022-08-02T20:44:40.711Z,29.57
2022-08-02T20:46:43.100Z,29.11
2022-08-02T20:48:44.999Z,30.35
2022-08-02T20:50:49.384Z,30.07
2022-08-02T20:52:52.347Z,29.93
2022-08-02T20:54:55.360Z,30.61
2022-08-02T20:56:56.981Z,29.80
2022-08-02T20:59:03.773Z,30.26
2022-08-02T21:01:13.356Z,29.84
2022-08-02T21:03:16.544Z,29.91
2022-08-02T21:05:26.803Z,30.08
2022-08-02T21:07:43.024Z,30.38
2022-08-02T21:09:53.560Z,29.76
2022-08-02T21:11:57.333Z,29.17
2022-08-02T21:14:07.973Z,29.80
2022-08-02T21:16:13.676Z,29.35
2022-08-02T21:18:26.575Z,29.77
2022-08-02T21:20:37.817Z,29.28
2022-08-02T21:22:39.525Z,30.73
2022-08-02T21:24:41.086Z,30.11
2022-08-02T21:26:42.744Z,30.07
2022-08-02T21:28:51.752Z,29.97
2022-08-02T21:30:53.419Z,30.83
2022-08-02T21:32:55.007Z,29.47
2022-08-02T21:34:58.752Z,30.16
2022-08-02T21:37:00.339Z,30.81
2022-08-02T21:39:11.663Z,29.88
2022-08-02T21:41:13.492Z,31.02
2022-08-02T21:43:15.091Z,31.04
2022-08-02T21:45:20.062Z,31.29
2022-08-02T21:47:21.868Z,30.41
2022-08-02T21:49:41.174Z,31.44
2022-08-02T21:51:49.528Z,31.61
2022-08-02T21:54:18.171Z,30.57
2022-08-02T21:56:13.611Z,31.07
2022-08-02T21:58:15.259Z,31.15
2022-08-02T22:00:28.921Z,30.64
2022-08-02T22:02:31.244Z,31.27
2022-08-02T22:04:32.983Z,31.01
2022-08-02T22:06:35.036Z,30.97
2022-08-02T22:08:38.074Z,32.25
2022-08-02T22:10:39.738Z,31.01
2022-08-02T22:12:45.406Z,30.94
2022-08-02T22:14:49.570Z,30.88
2022-08-02T22:16:56.673Z,30.60
2022-08-02T22:18:59.706Z,31.45
2022-08-02T22:21:01.472Z,30.23
2022-08-02T22:23:04.089Z,30.44
2022-08-02T22:25:26.783Z,30.57
2022-08-02T22:28:38.784Z,31.21
2022-08-02T22:29:57.455Z,31.01
2022-08-02T22:32:01.289Z,31.46
2022-08-02T22:34:03.895Z,32.09
2022-08-02T22:36:05.941Z,31.28
2022-08-02T22:40:34.802Z,31.23
2022-08-02T22:42:36.629Z,31.99
2022-08-02T22:44:44.109Z,32.39
2022-08-02T22:46:46.292Z,32.77
2022-08-02T22:48:49.337Z,33.22
2022-08-02T22:50:50.903Z,33.29
2022-08-02T22:52:52.574Z,33.20
2022-08-02T22:54:54.770Z,33.40
2022-08-02T22:56:56.524Z,34.32
2022-08-02T22:59:09.599Z,31.27
2022-08-02T23:01:17.595Z,34.59
2022-08-02T23:03:19.193Z,33.73
2022-08-02T23:05:22.137Z,33.53
2022-08-02T23:07:23.776Z,33.66
2022-08-02T23:09:25.380Z,33.56
2022-08-02T23:11:26.950Z,33.24
2022-08-02T23:13:28.568Z,33.60
2022-08-02T23:15:30.189Z,33.60
2022-08-02T23:17:35.830Z,33.57
2022-08-02T23:19:37.428Z,34.32
2022-08-02T23:22:02.119Z,33.16
2022-08-02T23:24:02.033Z,34.12
2022-08-02T23:26:04.115Z,34.33
2022-08-02T23:28:05.671Z,33.17
2022-08-02T23:30:08.198Z,33.30
2022-08-02T23:32:09.868Z,34.03
2022-08-02T23:34:11.506Z,33.40
2022-08-02T23:36:13.089Z,34.15
2022-08-02T23:38:16.073Z,34.15
2022-08-02T23:40:31.416Z,34.43
2022-08-02T23:42:39.322Z,33.88
2022-08-02T23:44:41.059Z,34.39
2022-08-02T23:46:42.776Z,34.66
2022-08-02T23:48:44.292Z,35.03
2022-08-02T23:50:45.875Z,34.56
2022-08-02T23:52:47.486Z,34.04
2022-08-02T23:54:50.464Z,34.75
2022-08-02T23:56:52.646Z,34.50
2022-08-02T23:58:57.248Z,34.22
